sensor_id;sensor_type;location;lat;lon;timestamp;P1;durP1;ratioP1;P2;durP2;ratioP2
15035;SDS011;7615;48.574;13.474;2023-07-20T00:00:18;5.05;;;3.33;;
15035;SDS011;7615;48.574;13.474;2023-07-20T00:02:45;4.35;;;3.47;;
15035;SDS011;7615;48.574;13.474;2023-07-20T00:05:16;7.70;;;3.65;;
15035;SDS011;7615;48.574;13.474;2023-07-20T00:07:46;6.60;;;3.67;;
15035;SDS011;7615;48.574;13.474;2023-07-20T00:10:17;7.35;;;3.30;;
15035;SDS011;7615;48.574;13.474;2023-07-20T00:12:43;10.60;;;4.00;;
15035;SDS011;7615;48.574;13.474;2023-07-20T00:15:14;6.85;;;4.00;;
15035;SDS011;7615;48.574;13.474;2023-07-20T00:17:40;8.02;;;4.15;;
15035;SDS011;7615;48.574;13.474;2023-07-20T00:20:08;5.28;;;4.07;;
15035;SDS011;7615;48.574;13.474;2023-07-20T00:22:35;4.60;;;4.00;;
15035;SDS011;7615;48.574;13.474;2023-07-20T00:25:03;4.72;;;4.03;;
15035;SDS011;7615;48.574;13.474;2023-07-20T00:27:30;6.07;;;4.28;;
15035;SDS011;7615;48.574;13.474;2023-07-20T00:29:57;8.30;;;4.20;;
15035;SDS011;7615;48.574;13.474;2023-07-20T00:32:25;8.70;;;3.63;;
15035;SDS011;7615;48.574;13.474;2023-07-20T00:34:52;7.72;;;4.22;;
15035;SDS011;7615;48.574;13.474;2023-07-20T00:37:20;6.55;;;4.13;;
15035;SDS011;7615;48.574;13.474;2023-07-20T00:39:47;5.60;;;3.97;;
15035;SDS011;7615;48.574;13.474;2023-07-20T00:42:14;6.65;;;3.90;;
15035;SDS011;7615;48.574;13.474;2023-07-20T00:44:41;5.90;;;4.03;;
15035;SDS011;7615;48.574;13.474;2023-07-20T00:47:08;4.35;;;3.80;;
15035;SDS011;7615;48.574;13.474;2023-07-20T00:49:36;4.95;;;4.15;;
15035;SDS011;7615;48.574;13.474;2023-07-20T00:52:06;5.05;;;3.97;;
15035;SDS011;7615;48.574;13.474;2023-07-20T00:54:34;4.70;;;3.90;;
15035;SDS011;7615;48.574;13.474;2023-07-20T00:57:02;9.10;;;4.07;;
15035;SDS011;7615;48.574;13.474;2023-07-20T00:59:30;5.20;;;4.30;;
15035;SDS011;7615;48.574;13.474;2023-07-20T01:01:57;4.35;;;3.92;;
15035;SDS011;7615;48.574;13.474;2023-07-20T01:04:24;5.88;;;3.72;;
15035;SDS011;7615;48.574;13.474;2023-07-20T01:06:54;9.18;;;4.07;;
15035;SDS011;7615;48.574;13.474;2023-07-20T01:09:31;5.25;;;3.75;;
15035;SDS011;7615;48.574;13.474;2023-07-20T01:12:04;6.68;;;3.75;;
15035;SDS011;7615;48.574;13.474;2023-07-20T01:14:34;4.70;;;3.85;;
15035;SDS011;7615;48.574;13.474;2023-07-20T01:17:01;6.55;;;4.18;;
15035;SDS011;7615;48.574;13.474;2023-07-20T01:19:28;5.38;;;3.97;;
15035;SDS011;7615;48.574;13.474;2023-07-20T01:21:58;5.30;;;4.68;;
15035;SDS011;7615;48.574;13.474;2023-07-20T01:24:32;5.75;;;4.90;;
15035;SDS011;7615;48.574;13.474;2023-07-20T01:30:20;5.00;;;4.47;;
15035;SDS011;7615;48.574;13.474;2023-07-20T01:33:00;5.18;;;4.47;;
15035;SDS011;7615;48.574;13.474;2023-07-20T01:35:29;9.75;;;4.55;;
15035;SDS011;7615;48.574;13.474;2023-07-20T01:37:57;6.40;;;4.63;;
15035;SDS011;7615;48.574;13.474;2023-07-20T01:40:25;6.95;;;4.00;;
15035;SDS011;7615;48.574;13.474;2023-07-20T01:42:53;5.28;;;4.05;;
15035;SDS011;7615;48.574;13.474;2023-07-20T01:45:20;4.32;;;3.85;;
15035;SDS011;7615;48.574;13.474;2023-07-20T01:47:47;4.22;;;3.63;;
15035;SDS011;7615;48.574;13.474;2023-07-20T01:50:15;6.45;;;4.07;;
15035;SDS011;7615;48.574;13.474;2023-07-20T01:52:42;6.28;;;3.70;;
15035;SDS011;7615;48.574;13.474;2023-07-20T01:55:09;8.50;;;3.92;;
15035;SDS011;7615;48.574;13.474;2023-07-20T01:57:36;6.93;;;4.07;;
15035;SDS011;7615;48.574;13.474;2023-07-20T02:00:04;4.97;;;4.07;;
15035;SDS011;7615;48.574;13.474;2023-07-20T02:02:31;6.35;;;4.40;;
15035;SDS011;7615;48.574;13.474;2023-07-20T02:04:58;9.82;;;4.40;;
15035;SDS011;7615;48.574;13.474;2023-07-20T02:07:27;4.80;;;3.80;;
15035;SDS011;7615;48.574;13.474;2023-07-20T02:09:54;6.00;;;4.47;;
15035;SDS011;7615;48.574;13.474;2023-07-20T02:12:21;8.00;;;3.90;;
15035;SDS011;7615;48.574;13.474;2023-07-20T02:14:47;5.53;;;4.00;;
15035;SDS011;7615;48.574;13.474;2023-07-20T02:17:16;6.70;;;4.15;;
15035;SDS011;7615;48.574;13.474;2023-07-20T02:19:43;7.60;;;4.22;;
15035;SDS011;7615;48.574;13.474;2023-07-20T02:22:10;5.75;;;4.28;;
15035;SDS011;7615;48.574;13.474;2023-07-20T02:24:38;7.07;;;4.10;;
15035;SDS011;7615;48.574;13.474;2023-07-20T02:27:05;6.03;;;4.03;;
15035;SDS011;7615;48.574;13.474;2023-07-20T02:29:33;6.43;;;4.00;;
15035;SDS011;7615;48.574;13.474;2023-07-20T02:32:00;4.72;;;3.75;;
15035;SDS011;7615;48.574;13.474;2023-07-20T02:34:28;7.60;;;4.07;;
15035;SDS011;7615;48.574;13.474;2023-07-20T02:36:55;7.80;;;4.00;;
15035;SDS011;7615;48.574;13.474;2023-07-20T02:39:23;5.55;;;4.10;;
15035;SDS011;7615;48.574;13.474;2023-07-20T02:41:51;5.85;;;4.05;;
15035;SDS011;7615;48.574;13.474;2023-07-20T02:44:20;5.85;;;3.92;;
15035;SDS011;7615;48.574;13.474;2023-07-20T02:46:47;5.47;;;4.05;;
15035;SDS011;7615;48.574;13.474;2023-07-20T02:49:14;3.97;;;3.58;;
15035;SDS011;7615;48.574;13.474;2023-07-20T02:51:41;5.80;;;3.78;;
15035;SDS011;7615;48.574;13.474;2023-07-20T02:54:08;5.57;;;3.90;;
15035;SDS011;7615;48.574;13.474;2023-07-20T02:56:35;18.80;;;12.63;;
15035;SDS011;7615;48.574;13.474;2023-07-20T02:59:03;4.63;;;4.03;;
15035;SDS011;7615;48.574;13.474;2023-07-20T03:01:30;5.00;;;3.63;;
15035;SDS011;7615;48.574;13.474;2023-07-20T03:03:57;8.30;;;3.90;;
15035;SDS011;7615;48.574;13.474;2023-07-20T03:06:24;5.10;;;3.45;;
15035;SDS011;7615;48.574;13.474;2023-07-20T03:08:51;7.93;;;3.63;;
15035;SDS011;7615;48.574;13.474;2023-07-20T03:11:18;4.90;;;3.97;;
15035;SDS011;7615;48.574;13.474;2023-07-20T03:13:46;4.38;;;3.78;;
15035;SDS011;7615;48.574;13.474;2023-07-20T03:16:17;4.28;;;3.88;;
15035;SDS011;7615;48.574;13.474;2023-07-20T03:18:44;3.92;;;3.50;;
15035;SDS011;7615;48.574;13.474;2023-07-20T03:21:12;4.47;;;3.42;;
15035;SDS011;7615;48.574;13.474;2023-07-20T03:23:39;7.63;;;3.38;;
15035;SDS011;7615;48.574;13.474;2023-07-20T03:26:06;9.32;;;3.92;;
15035;SDS011;7615;48.574;13.474;2023-07-20T03:28:34;5.70;;;3.42;;
15035;SDS011;7615;48.574;13.474;2023-07-20T03:31:00;4.30;;;3.40;;
15035;SDS011;7615;48.574;13.474;2023-07-20T03:33:29;4.65;;;3.25;;
15035;SDS011;7615;48.574;13.474;2023-07-20T03:35:57;5.60;;;3.53;;
15035;SDS011;7615;48.574;13.474;2023-07-20T03:38:25;9.88;;;4.00;;
15035;SDS011;7615;48.574;13.474;2023-07-20T03:40:52;8.40;;;3.88;;
15035;SDS011;7615;48.574;13.474;2023-07-20T03:43:20;5.22;;;3.60;;
15035;SDS011;7615;48.574;13.474;2023-07-20T03:45:46;11.07;;;3.70;;
15035;SDS011;7615;48.574;13.474;2023-07-20T03:48:14;5.28;;;4.07;;
15035;SDS011;7615;48.574;13.474;2023-07-20T03:50:45;7.47;;;4.50;;
15035;SDS011;7615;48.574;13.474;2023-07-20T03:53:12;4.38;;;3.58;;
15035;SDS011;7615;48.574;13.474;2023-07-20T03:55:39;5.55;;;4.38;;
15035;SDS011;7615;48.574;13.474;2023-07-20T03:58:06;5.93;;;3.90;;
15035;SDS011;7615;48.574;13.474;2023-07-20T04:00:33;9.95;;;3.80;;
15035;SDS011;7615;48.574;13.474;2023-07-20T04:03:00;4.55;;;4.10;;
15035;SDS011;7615;48.574;13.474;2023-07-20T04:05:27;5.72;;;4.30;;
15035;SDS011;7615;48.574;13.474;2023-07-20T04:07:56;8.20;;;4.28;;
15035;SDS011;7615;48.574;13.474;2023-07-20T04:10:23;4.85;;;4.10;;
15035;SDS011;7615;48.574;13.474;2023-07-20T04:12:50;5.88;;;4.03;;
15035;SDS011;7615;48.574;13.474;2023-07-20T04:15:16;5.38;;;4.60;;
15035;SDS011;7615;48.574;13.474;2023-07-20T04:17:44;6.78;;;4.40;;
15035;SDS011;7615;48.574;13.474;2023-07-20T04:20:11;5.65;;;4.30;;
15035;SDS011;7615;48.574;13.474;2023-07-20T04:22:38;4.50;;;3.88;;
15035;SDS011;7615;48.574;13.474;2023-07-20T04:25:08;6.70;;;4.60;;
15035;SDS011;7615;48.574;13.474;2023-07-20T04:27:36;6.18;;;4.57;;
15035;SDS011;7615;48.574;13.474;2023-07-20T04:30:03;6.68;;;4.40;;
15035;SDS011;7615;48.574;13.474;2023-07-20T04:32:32;5.63;;;4.57;;
15035;SDS011;7615;48.574;13.474;2023-07-20T04:34:59;6.10;;;4.80;;
15035;SDS011;7615;48.574;13.474;2023-07-20T04:37:29;5.43;;;4.65;;
15035;SDS011;7615;48.574;13.474;2023-07-20T04:39:57;13.52;;;5.65;;
15035;SDS011;7615;48.574;13.474;2023-07-20T04:42:26;16.30;;;7.80;;
15035;SDS011;7615;48.574;13.474;2023-07-20T04:44:52;6.35;;;4.60;;
15035;SDS011;7615;48.574;13.474;2023-07-20T04:47:19;9.65;;;4.75;;
15035;SDS011;7615;48.574;13.474;2023-07-20T04:49:46;7.32;;;5.40;;
15035;SDS011;7615;48.574;13.474;2023-07-20T04:52:31;7.55;;;4.75;;
15035;SDS011;7615;48.574;13.474;2023-07-20T04:54:58;8.10;;;4.65;;
15035;SDS011;7615;48.574;13.474;2023-07-20T05:03:22;5.82;;;4.65;;
15035;SDS011;7615;48.574;13.474;2023-07-20T05:05:49;7.97;;;4.35;;
15035;SDS011;7615;48.574;13.474;2023-07-20T05:08:16;7.40;;;4.80;;
15035;SDS011;7615;48.574;13.474;2023-07-20T05:10:43;7.95;;;4.57;;
15035;SDS011;7615;48.574;13.474;2023-07-20T05:13:11;6.03;;;4.40;;
15035;SDS011;7615;48.574;13.474;2023-07-20T05:15:38;4.53;;;4.10;;
15035;SDS011;7615;48.574;13.474;2023-07-20T05:18:05;5.90;;;4.35;;
15035;SDS011;7615;48.574;13.474;2023-07-20T05:20:33;4.60;;;4.10;;
15035;SDS011;7615;48.574;13.474;2023-07-20T05:23:00;7.63;;;4.20;;
15035;SDS011;7615;48.574;13.474;2023-07-20T05:25:27;4.40;;;3.40;;
15035;SDS011;7615;48.574;13.474;2023-07-20T05:27:54;4.18;;;3.30;;
15035;SDS011;7615;48.574;13.474;2023-07-20T05:30:22;5.57;;;3.10;;
15035;SDS011;7615;48.574;13.474;2023-07-20T05:32:49;5.47;;;3.58;;
15035;SDS011;7615;48.574;13.474;2023-07-20T05:35:18;6.70;;;3.47;;
15035;SDS011;7615;48.574;13.474;2023-07-20T05:37:45;3.88;;;3.42;;
15035;SDS011;7615;48.574;13.474;2023-07-20T05:40:13;5.97;;;3.72;;
15035;SDS011;7615;48.574;13.474;2023-07-20T05:42:43;5.35;;;3.13;;
15035;SDS011;7615;48.574;13.474;2023-07-20T05:45:10;3.95;;;3.17;;
15035;SDS011;7615;48.574;13.474;2023-07-20T05:47:39;12.48;;;4.28;;
15035;SDS011;7615;48.574;13.474;2023-07-20T05:52:56;3.42;;;3.13;;
15035;SDS011;7615;48.574;13.474;2023-07-20T05:55:23;6.65;;;3.53;;
15035;SDS011;7615;48.574;13.474;2023-07-20T05:57:50;7.10;;;3.58;;
15035;SDS011;7615;48.574;13.474;2023-07-20T06:00:17;5.47;;;3.58;;
15035;SDS011;7615;48.574;13.474;2023-07-20T06:02:52;5.03;;;3.40;;
15035;SDS011;7615;48.574;13.474;2023-07-20T06:05:20;4.93;;;3.55;;
15035;SDS011;7615;48.574;13.474;2023-07-20T06:07:48;8.40;;;3.88;;
15035;SDS011;7615;48.574;13.474;2023-07-20T06:10:15;4.53;;;3.33;;
15035;SDS011;7615;48.574;13.474;2023-07-20T06:12:42;6.43;;;3.50;;
15035;SDS011;7615;48.574;13.474;2023-07-20T06:15:23;3.92;;;3.40;;
15035;SDS011;7615;48.574;13.474;2023-07-20T06:17:53;5.15;;;3.42;;
15035;SDS011;7615;48.574;13.474;2023-07-20T06:20:21;8.73;;;3.95;;
15035;SDS011;7615;48.574;13.474;2023-07-20T06:22:48;6.78;;;3.35;;
15035;SDS011;7615;48.574;13.474;2023-07-20T06:25:15;6.60;;;3.58;;
15035;SDS011;7615;48.574;13.474;2023-07-20T06:27:42;7.97;;;3.38;;
15035;SDS011;7615;48.574;13.474;2023-07-20T06:30:09;4.43;;;3.30;;
15035;SDS011;7615;48.574;13.474;2023-07-20T06:32:37;8.20;;;3.60;;
15035;SDS011;7615;48.574;13.474;2023-07-20T06:35:06;5.72;;;3.55;;
15035;SDS011;7615;48.574;13.474;2023-07-20T06:37:34;4.93;;;3.40;;
15035;SDS011;7615;48.574;13.474;2023-07-20T06:40:01;5.30;;;3.33;;
15035;SDS011;7615;48.574;13.474;2023-07-20T06:42:29;8.23;;;3.65;;
15035;SDS011;7615;48.574;13.474;2023-07-20T06:44:56;9.52;;;3.88;;
15035;SDS011;7615;48.574;13.474;2023-07-20T06:47:24;4.72;;;3.20;;
15035;SDS011;7615;48.574;13.474;2023-07-20T06:49:50;6.47;;;3.28;;
15035;SDS011;7615;48.574;13.474;2023-07-20T06:52:20;4.13;;;3.15;;
15035;SDS011;7615;48.574;13.474;2023-07-20T06:54:47;4.95;;;3.00;;
15035;SDS011;7615;48.574;13.474;2023-07-20T06:57:14;4.80;;;2.80;;
15035;SDS011;7615;48.574;13.474;2023-07-20T06:59:40;8.05;;;3.75;;
15035;SDS011;7615;48.574;13.474;2023-07-20T07:02:07;6.45;;;3.33;;
15035;SDS011;7615;48.574;13.474;2023-07-20T07:04:38;6.10;;;3.03;;
15035;SDS011;7615;48.574;13.474;2023-07-20T07:07:06;3.30;;;2.97;;
15035;SDS011;7615;48.574;13.474;2023-07-20T07:09:34;5.85;;;2.80;;
15035;SDS011;7615;48.574;13.474;2023-07-20T07:12:01;4.22;;;2.55;;
15035;SDS011;7615;48.574;13.474;2023-07-20T07:14:27;5.95;;;2.78;;
15035;SDS011;7615;48.574;13.474;2023-07-20T07:16:54;4.43;;;2.78;;
15035;SDS011;7615;48.574;13.474;2023-07-20T07:19:21;5.82;;;2.53;;
15035;SDS011;7615;48.574;13.474;2023-07-20T07:21:48;5.95;;;2.70;;
15035;SDS011;7615;48.574;13.474;2023-07-20T07:24:16;6.22;;;2.55;;
15035;SDS011;7615;48.574;13.474;2023-07-20T07:26:44;5.78;;;2.35;;
15035;SDS011;7615;48.574;13.474;2023-07-20T07:29:11;3.45;;;2.33;;
15035;SDS011;7615;48.574;13.474;2023-07-20T07:31:37;5.28;;;2.50;;
15035;SDS011;7615;48.574;13.474;2023-07-20T07:34:04;4.68;;;2.35;;
15035;SDS011;7615;48.574;13.474;2023-07-20T07:36:31;4.75;;;2.15;;
15035;SDS011;7615;48.574;13.474;2023-07-20T07:38:59;5.25;;;2.25;;
15035;SDS011;7615;48.574;13.474;2023-07-20T07:41:26;3.10;;;2.03;;
15035;SDS011;7615;48.574;13.474;2023-07-20T07:43:55;2.90;;;2.33;;
15035;SDS011;7615;48.574;13.474;2023-07-20T07:46:21;2.60;;;2.40;;
15035;SDS011;7615;48.574;13.474;2023-07-20T07:48:48;3.95;;;2.50;;
15035;SDS011;7615;48.574;13.474;2023-07-20T07:51:15;2.28;;;2.08;;
15035;SDS011;7615;48.574;13.474;2023-07-20T07:53:42;3.60;;;2.10;;
15035;SDS011;7615;48.574;13.474;2023-07-20T07:56:09;4.80;;;2.17;;
15035;SDS011;7615;48.574;13.474;2023-07-20T07:58:36;5.50;;;2.03;;
15035;SDS011;7615;48.574;13.474;2023-07-20T08:01:04;7.20;;;2.17;;
15035;SDS011;7615;48.574;13.474;2023-07-20T08:03:31;4.20;;;2.15;;
15035;SDS011;7615;48.574;13.474;2023-07-20T08:05:58;2.63;;;1.63;;
15035;SDS011;7615;48.574;13.474;2023-07-20T08:08:25;3.03;;;2.00;;
15035;SDS011;7615;48.574;13.474;2023-07-20T08:10:53;3.20;;;2.00;;
15035;SDS011;7615;48.574;13.474;2023-07-20T08:13:20;3.35;;;1.83;;
15035;SDS011;7615;48.574;13.474;2023-07-20T08:15:49;2.60;;;2.15;;
15035;SDS011;7615;48.574;13.474;2023-07-20T08:18:18;14.20;;;2.75;;
15035;SDS011;7615;48.574;13.474;2023-07-20T08:20:45;3.75;;;2.03;;
15035;SDS011;7615;48.574;13.474;2023-07-20T08:23:12;6.15;;;2.15;;
15035;SDS011;7615;48.574;13.474;2023-07-20T08:25:39;5.70;;;2.00;;
15035;SDS011;7615;48.574;13.474;2023-07-20T08:28:09;4.70;;;1.90;;
15035;SDS011;7615;48.574;13.474;2023-07-20T08:30:40;3.63;;;1.90;;
15035;SDS011;7615;48.574;13.474;2023-07-20T08:33:08;4.63;;;1.80;;
15035;SDS011;7615;48.574;13.474;2023-07-20T08:35:37;2.13;;;1.95;;
15035;SDS011;7615;48.574;13.474;2023-07-20T08:38:04;2.00;;;1.80;;
15035;SDS011;7615;48.574;13.474;2023-07-20T08:40:33;3.55;;;1.80;;
15035;SDS011;7615;48.574;13.474;2023-07-20T08:43:01;2.95;;;1.77;;
15035;SDS011;7615;48.574;13.474;2023-07-20T08:45:28;2.40;;;1.75;;
15035;SDS011;7615;48.574;13.474;2023-07-20T08:47:58;2.60;;;1.83;;
15035;SDS011;7615;48.574;13.474;2023-07-20T08:50:28;5.43;;;2.03;;
15035;SDS011;7615;48.574;13.474;2023-07-20T08:52:58;3.63;;;1.70;;
15035;SDS011;7615;48.574;13.474;2023-07-20T08:55:26;4.78;;;2.17;;
15035;SDS011;7615;48.574;13.474;2023-07-20T08:57:54;3.28;;;1.92;;
15035;SDS011;7615;48.574;13.474;2023-07-20T09:00:23;2.13;;;1.90;;
15035;SDS011;7615;48.574;13.474;2023-07-20T09:02:53;1.90;;;1.55;;
15035;SDS011;7615;48.574;13.474;2023-07-20T09:05:20;2.88;;;2.00;;
15035;SDS011;7615;48.574;13.474;2023-07-20T09:07:48;3.78;;;1.88;;
15035;SDS011;7615;48.574;13.474;2023-07-20T09:10:16;4.95;;;1.80;;
15035;SDS011;7615;48.574;13.474;2023-07-20T09:12:43;7.22;;;2.08;;
15035;SDS011;7615;48.574;13.474;2023-07-20T09:15:12;3.47;;;1.90;;
15035;SDS011;7615;48.574;13.474;2023-07-20T09:17:38;3.22;;;1.80;;
15035;SDS011;7615;48.574;13.474;2023-07-20T09:20:06;3.30;;;1.70;;
15035;SDS011;7615;48.574;13.474;2023-07-20T09:22:36;3.38;;;1.95;;
15035;SDS011;7615;48.574;13.474;2023-07-20T09:25:05;2.40;;;1.95;;
15035;SDS011;7615;48.574;13.474;2023-07-20T09:27:37;3.15;;;2.17;;
15035;SDS011;7615;48.574;13.474;2023-07-20T09:30:10;2.88;;;1.77;;
15035;SDS011;7615;48.574;13.474;2023-07-20T09:32:38;3.53;;;1.90;;
15035;SDS011;7615;48.574;13.474;2023-07-20T09:35:06;5.25;;;2.55;;
15035;SDS011;7615;48.574;13.474;2023-07-20T09:37:37;4.38;;;1.92;;
15035;SDS011;7615;48.574;13.474;2023-07-20T09:40:04;3.47;;;1.83;;
15035;SDS011;7615;48.574;13.474;2023-07-20T09:42:34;3.88;;;2.35;;
15035;SDS011;7615;48.574;13.474;2023-07-20T09:45:06;2.55;;;2.05;;
15035;SDS011;7615;48.574;13.474;2023-07-20T09:47:35;2.67;;;1.92;;
15035;SDS011;7615;48.574;13.474;2023-07-20T09:50:03;2.70;;;2.20;;
15035;SDS011;7615;48.574;13.474;2023-07-20T09:52:35;4.82;;;1.90;;
15035;SDS011;7615;48.574;13.474;2023-07-20T09:55:09;2.70;;;2.17;;
15035;SDS011;7615;48.574;13.474;2023-07-20T09:57:38;2.65;;;2.20;;
15035;SDS011;7615;48.574;13.474;2023-07-20T10:00:06;3.08;;;1.85;;
15035;SDS011;7615;48.574;13.474;2023-07-20T10:02:40;2.00;;;1.90;;
15035;SDS011;7615;48.574;13.474;2023-07-20T10:05:10;3.85;;;2.10;;
15035;SDS011;7615;48.574;13.474;2023-07-20T10:07:42;2.47;;;2.10;;
15035;SDS011;7615;48.574;13.474;2023-07-20T10:10:11;2.28;;;1.83;;
15035;SDS011;7615;48.574;13.474;2023-07-20T10:12:42;5.95;;;2.00;;
15035;SDS011;7615;48.574;13.474;2023-07-20T10:15:13;6.25;;;2.80;;
15035;SDS011;7615;48.574;13.474;2023-07-20T10:17:47;5.35;;;2.05;;
15035;SDS011;7615;48.574;13.474;2023-07-20T10:20:21;2.83;;;1.90;;
15035;SDS011;7615;48.574;13.474;2023-07-20T10:22:49;1.67;;;1.58;;
15035;SDS011;7615;48.574;13.474;2023-07-20T10:25:19;4.72;;;1.90;;
15035;SDS011;7615;48.574;13.474;2023-07-20T10:27:48;2.30;;;2.10;;
15035;SDS011;7615;48.574;13.474;2023-07-20T10:30:16;2.08;;;1.88;;
15035;SDS011;7615;48.574;13.474;2023-07-20T10:32:44;2.50;;;2.00;;
15035;SDS011;7615;48.574;13.474;2023-07-20T10:35:12;4.78;;;2.13;;
15035;SDS011;7615;48.574;13.474;2023-07-20T10:37:50;2.95;;;1.90;;
15035;SDS011;7615;48.574;13.474;2023-07-20T10:40:25;3.00;;;1.92;;
15035;SDS011;7615;48.574;13.474;2023-07-20T10:42:57;2.60;;;2.00;;
15035;SDS011;7615;48.574;13.474;2023-07-20T10:45:34;3.53;;;2.00;;
15035;SDS011;7615;48.574;13.474;2023-07-20T10:48:05;2.17;;;1.98;;
15035;SDS011;7615;48.574;13.474;2023-07-20T10:50:33;2.55;;;1.77;;
15035;SDS011;7615;48.574;13.474;2023-07-20T10:53:09;2.28;;;2.08;;
15035;SDS011;7615;48.574;13.474;2023-07-20T10:55:37;2.00;;;1.60;;
15035;SDS011;7615;48.574;13.474;2023-07-20T10:58:10;5.07;;;1.90;;
15035;SDS011;7615;48.574;13.474;2023-07-20T11:00:54;4.30;;;2.00;;
15035;SDS011;7615;48.574;13.474;2023-07-20T11:03:29;2.70;;;1.80;;
15035;SDS011;7615;48.574;13.474;2023-07-20T11:05:57;2.40;;;1.67;;
15035;SDS011;7615;48.574;13.474;2023-07-20T11:08:40;4.63;;;2.00;;
15035;SDS011;7615;48.574;13.474;2023-07-20T11:11:22;3.80;;;2.13;;
15035;SDS011;7615;48.574;13.474;2023-07-20T11:13:55;2.05;;;1.65;;
15035;SDS011;7615;48.574;13.474;2023-07-20T11:16:32;2.55;;;2.20;;
15035;SDS011;7615;48.574;13.474;2023-07-20T11:19:01;3.00;;;2.03;;
15035;SDS011;7615;48.574;13.474;2023-07-20T11:21:29;2.13;;;1.83;;
15035;SDS011;7615;48.574;13.474;2023-07-20T11:23:56;2.45;;;1.70;;
15035;SDS011;7615;48.574;13.474;2023-07-20T11:26:23;4.13;;;1.70;;
15035;SDS011;7615;48.574;13.474;2023-07-20T11:28:52;2.10;;;1.77;;
15035;SDS011;7615;48.574;13.474;2023-07-20T11:31:23;4.45;;;1.65;;
15035;SDS011;7615;48.574;13.474;2023-07-20T11:33:50;4.32;;;1.63;;
15035;SDS011;7615;48.574;13.474;2023-07-20T11:36:17;1.95;;;1.73;;
15035;SDS011;7615;48.574;13.474;2023-07-20T11:38:45;7.38;;;1.80;;
15035;SDS011;7615;48.574;13.474;2023-07-20T11:41:14;4.20;;;1.45;;
15035;SDS011;7615;48.574;13.474;2023-07-20T11:43:42;5.13;;;1.92;;
15035;SDS011;7615;48.574;13.474;2023-07-20T11:46:09;2.97;;;1.70;;
15035;SDS011;7615;48.574;13.474;2023-07-20T11:48:37;2.22;;;1.60;;
15035;SDS011;7615;48.574;13.474;2023-07-20T11:51:05;3.15;;;1.60;;
15035;SDS011;7615;48.574;13.474;2023-07-20T11:53:32;2.38;;;2.13;;
15035;SDS011;7615;48.574;13.474;2023-07-20T11:55:59;3.80;;;1.50;;
15035;SDS011;7615;48.574;13.474;2023-07-20T11:58:27;2.55;;;1.55;;
15035;SDS011;7615;48.574;13.474;2023-07-20T12:00:55;6.80;;;1.67;;
15035;SDS011;7615;48.574;13.474;2023-07-20T12:03:22;2.25;;;1.52;;
15035;SDS011;7615;48.574;13.474;2023-07-20T12:05:51;3.38;;;1.83;;
15035;SDS011;7615;48.574;13.474;2023-07-20T12:08:19;2.22;;;1.63;;
15035;SDS011;7615;48.574;13.474;2023-07-20T12:10:46;2.17;;;1.70;;
15035;SDS011;7615;48.574;13.474;2023-07-20T12:13:15;2.03;;;1.48;;
15035;SDS011;7615;48.574;13.474;2023-07-20T12:15:42;2.47;;;1.80;;
15035;SDS011;7615;48.574;13.474;2023-07-20T12:18:10;1.98;;;1.75;;
15035;SDS011;7615;48.574;13.474;2023-07-20T12:20:37;3.15;;;1.90;;
15035;SDS011;7615;48.574;13.474;2023-07-20T12:23:08;1.92;;;1.83;;
15035;SDS011;7615;48.574;13.474;2023-07-20T12:25:36;4.13;;;1.50;;
15035;SDS011;7615;48.574;13.474;2023-07-20T12:28:07;2.30;;;2.10;;
15035;SDS011;7615;48.574;13.474;2023-07-20T12:30:35;3.30;;;1.60;;
15035;SDS011;7615;48.574;13.474;2023-07-20T12:33:03;4.05;;;2.53;;
15035;SDS011;7615;48.574;13.474;2023-07-20T12:35:30;3.10;;;1.63;;
15035;SDS011;7615;48.574;13.474;2023-07-20T12:37:57;7.47;;;1.60;;
15035;SDS011;7615;48.574;13.474;2023-07-20T12:40:26;1.98;;;1.52;;
15035;SDS011;7615;48.574;13.474;2023-07-20T12:42:53;2.67;;;1.63;;
15035;SDS011;7615;48.574;13.474;2023-07-20T12:45:20;1.83;;;1.50;;
15035;SDS011;7615;48.574;13.474;2023-07-20T12:47:47;3.10;;;1.50;;
15035;SDS011;7615;48.574;13.474;2023-07-20T12:50:15;1.95;;;1.50;;
15035;SDS011;7615;48.574;13.474;2023-07-20T12:52:42;1.65;;;1.38;;
15035;SDS011;7615;48.574;13.474;2023-07-20T12:55:11;4.82;;;1.40;;
15035;SDS011;7615;48.574;13.474;2023-07-20T12:57:40;1.83;;;1.50;;
15035;SDS011;7615;48.574;13.474;2023-07-20T13:00:09;1.67;;;1.33;;
15035;SDS011;7615;48.574;13.474;2023-07-20T13:02:37;1.80;;;1.70;;
15035;SDS011;7615;48.574;13.474;2023-07-20T13:05:04;7.28;;;2.03;;
15035;SDS011;7615;48.574;13.474;2023-07-20T13:07:32;2.85;;;1.75;;
15035;SDS011;7615;48.574;13.474;2023-07-20T13:09:59;1.83;;;1.65;;
15035;SDS011;7615;48.574;13.474;2023-07-20T13:12:27;1.95;;;1.85;;
15035;SDS011;7615;48.574;13.474;2023-07-20T13:14:55;3.00;;;1.58;;
15035;SDS011;7615;48.574;13.474;2023-07-20T13:17:25;3.85;;;1.70;;
15035;SDS011;7615;48.574;13.474;2023-07-20T13:19:53;3.55;;;1.85;;
15035;SDS011;7615;48.574;13.474;2023-07-20T13:22:21;1.60;;;1.45;;
15035;SDS011;7615;48.574;13.474;2023-07-20T13:24:52;1.73;;;1.63;;
15035;SDS011;7615;48.574;13.474;2023-07-20T13:27:19;9.80;;;1.70;;
15035;SDS011;7615;48.574;13.474;2023-07-20T13:29:47;2.15;;;1.42;;
15035;SDS011;7615;48.574;13.474;2023-07-20T13:32:23;1.77;;;1.67;;
15035;SDS011;7615;48.574;13.474;2023-07-20T13:34:53;3.80;;;1.52;;
15035;SDS011;7615;48.574;13.474;2023-07-20T13:37:20;2.33;;;1.70;;
15035;SDS011;7615;48.574;13.474;2023-07-20T13:39:48;1.50;;;1.40;;
15035;SDS011;7615;48.574;13.474;2023-07-20T13:42:15;1.90;;;1.45;;
15035;SDS011;7615;48.574;13.474;2023-07-20T13:44:43;2.78;;;1.50;;
15035;SDS011;7615;48.574;13.474;2023-07-20T13:47:11;1.75;;;1.65;;
15035;SDS011;7615;48.574;13.474;2023-07-20T13:49:40;1.90;;;1.48;;
15035;SDS011;7615;48.574;13.474;2023-07-20T13:52:07;2.60;;;1.40;;
15035;SDS011;7615;48.574;13.474;2023-07-20T13:54:34;3.47;;;1.50;;
15035;SDS011;7615;48.574;13.474;2023-07-20T13:57:02;4.78;;;1.50;;
15035;SDS011;7615;48.574;13.474;2023-07-20T13:59:30;1.50;;;1.35;;
15035;SDS011;7615;48.574;13.474;2023-07-20T14:01:57;1.48;;;1.35;;
15035;SDS011;7615;48.574;13.474;2023-07-20T14:04:24;2.78;;;1.30;;
15035;SDS011;7615;48.574;13.474;2023-07-20T14:06:53;7.85;;;1.60;;
15035;SDS011;7615;48.574;13.474;2023-07-20T14:09:20;2.08;;;1.50;;
15035;SDS011;7615;48.574;13.474;2023-07-20T14:11:47;2.28;;;1.45;;
15035;SDS011;7615;48.574;13.474;2023-07-20T14:14:15;3.22;;;1.45;;
15035;SDS011;7615;48.574;13.474;2023-07-20T14:16:42;2.10;;;1.60;;
15035;SDS011;7615;48.574;13.474;2023-07-20T14:19:09;1.92;;;1.60;;
15035;SDS011;7615;48.574;13.474;2023-07-20T14:21:37;1.85;;;1.50;;
15035;SDS011;7615;48.574;13.474;2023-07-20T14:24:06;1.80;;;1.50;;
15035;SDS011;7615;48.574;13.474;2023-07-20T14:26:33;2.60;;;1.48;;
15035;SDS011;7615;48.574;13.474;2023-07-20T14:29:01;3.22;;;1.30;;
15035;SDS011;7615;48.574;13.474;2023-07-20T14:31:28;1.40;;;1.30;;
15035;SDS011;7615;48.574;13.474;2023-07-20T14:33:55;1.40;;;1.30;;
15035;SDS011;7615;48.574;13.474;2023-07-20T14:36:23;1.73;;;1.40;;
15035;SDS011;7615;48.574;13.474;2023-07-20T14:38:50;1.40;;;1.30;;
15035;SDS011;7615;48.574;13.474;2023-07-20T14:41:18;1.52;;;1.40;;
15035;SDS011;7615;48.574;13.474;2023-07-20T14:43:46;3.03;;;1.48;;
15035;SDS011;7615;48.574;13.474;2023-07-20T14:46:13;3.67;;;1.55;;
15035;SDS011;7615;48.574;13.474;2023-07-20T14:48:41;1.52;;;1.27;;
15035;SDS011;7615;48.574;13.474;2023-07-20T14:51:08;1.10;;;1.10;;
15035;SDS011;7615;48.574;13.474;2023-07-20T14:53:35;3.58;;;1.38;;
15035;SDS011;7615;48.574;13.474;2023-07-20T14:56:03;1.48;;;1.30;;
15035;SDS011;7615;48.574;13.474;2023-07-20T14:58:31;2.17;;;1.85;;
15035;SDS011;7615;48.574;13.474;2023-07-20T15:00:59;2.88;;;1.85;;
15035;SDS011;7615;48.574;13.474;2023-07-20T15:03:26;1.42;;;1.30;;
15035;SDS011;7615;48.574;13.474;2023-07-20T15:05:55;1.83;;;1.50;;